sensor_id;sensor_type;location;lat;lon;timestamp;P1;durP1;ratioP1;P2;durP2;ratioP2
19965;SDS011;10144;50.874;4.762;2023-04-15T00:03:35;6.67;;;2.80;;
19965;SDS011;10144;50.874;4.762;2023-04-15T00:06:00;7.90;;;3.07;;
19965;SDS011;10144;50.874;4.762;2023-04-15T00:08:27;8.47;;;3.30;;
19965;SDS011;10144;50.874;4.762;2023-04-15T00:10:55;7.40;;;3.20;;
19965;SDS011;10144;50.874;4.762;2023-04-15T00:16:08;7.30;;;3.20;;
19965;SDS011;10144;50.874;4.762;2023-04-15T00:18:35;9.47;;;3.10;;
19965;SDS011;10144;50.874;4.762;2023-04-15T00:21:04;9.40;;;3.60;;
19965;SDS011;10144;50.874;4.762;2023-04-15T00:23:32;9.27;;;3.63;;
19965;SDS011;10144;50.874;4.762;2023-04-15T00:26:04;8.87;;;3.60;;
19965;SDS011;10144;50.874;4.762;2023-04-15T00:30:58;8.90;;;3.50;;
19965;SDS011;10144;50.874;4.762;2023-04-15T00:33:24;13.17;;;4.20;;
19965;SDS011;10144;50.874;4.762;2023-04-15T00:38:18;9.77;;;3.93;;
19965;SDS011;10144;50.874;4.762;2023-04-15T00:40:44;10.57;;;3.57;;
19965;SDS011;10144;50.874;4.762;2023-04-15T00:43:10;10.93;;;3.77;;
19965;SDS011;10144;50.874;4.762;2023-04-15T00:45:39;12.30;;;4.43;;
19965;SDS011;10144;50.874;4.762;2023-04-15T00:48:05;10.73;;;4.20;;
19965;SDS011;10144;50.874;4.762;2023-04-15T00:50:34;9.47;;;4.47;;
19965;SDS011;10144;50.874;4.762;2023-04-15T00:53:00;9.07;;;4.30;;
19965;SDS011;10144;50.874;4.762;2023-04-15T00:55:25;12.70;;;4.33;;
19965;SDS011;10144;50.874;4.762;2023-04-15T00:57:51;11.80;;;4.10;;
19965;SDS011;10144;50.874;4.762;2023-04-15T01:00:23;12.63;;;5.03;;
19965;SDS011;10144;50.874;4.762;2023-04-15T01:02:51;10.17;;;4.73;;
19965;SDS011;10144;50.874;4.762;2023-04-15T01:05:22;13.27;;;4.67;;
19965;SDS011;10144;50.874;4.762;2023-04-15T01:07:55;10.87;;;4.63;;
19965;SDS011;10144;50.874;4.762;2023-04-15T01:10:24;10.20;;;4.27;;
19965;SDS011;10144;50.874;4.762;2023-04-15T01:12:52;12.37;;;4.57;;
19965;SDS011;10144;50.874;4.762;2023-04-15T01:15:19;10.83;;;4.60;;
19965;SDS011;10144;50.874;4.762;2023-04-15T01:17:51;10.50;;;4.23;;
19965;SDS011;10144;50.874;4.762;2023-04-15T01:20:23;11.23;;;4.07;;
19965;SDS011;10144;50.874;4.762;2023-04-15T01:22:51;11.43;;;4.63;;
19965;SDS011;10144;50.874;4.762;2023-04-15T01:25:30;12.43;;;4.30;;
19965;SDS011;10144;50.874;4.762;2023-04-15T01:28:05;11.57;;;4.10;;
19965;SDS011;10144;50.874;4.762;2023-04-15T01:30:34;11.57;;;3.50;;
19965;SDS011;10144;50.874;4.762;2023-04-15T01:33:02;10.60;;;4.07;;
19965;SDS011;10144;50.874;4.762;2023-04-15T01:35:31;8.73;;;3.37;;
19965;SDS011;10144;50.874;4.762;2023-04-15T01:40:46;9.30;;;3.50;;
19965;SDS011;10144;50.874;4.762;2023-04-15T01:43:18;11.30;;;3.53;;
19965;SDS011;10144;50.874;4.762;2023-04-15T01:45:47;9.87;;;3.77;;
19965;SDS011;10144;50.874;4.762;2023-04-15T01:50:44;7.40;;;3.40;;
19965;SDS011;10144;50.874;4.762;2023-04-15T01:53:10;9.50;;;3.50;;
19965;SDS011;10144;50.874;4.762;2023-04-15T01:55:39;11.23;;;3.47;;
19965;SDS011;10144;50.874;4.762;2023-04-15T01:58:11;11.40;;;3.23;;
19965;SDS011;10144;50.874;4.762;2023-04-15T02:03:06;9.67;;;3.50;;
19965;SDS011;10144;50.874;4.762;2023-04-15T02:05:32;9.77;;;3.50;;
19965;SDS011;10144;50.874;4.762;2023-04-15T02:08:04;11.20;;;4.20;;
19965;SDS011;10144;50.874;4.762;2023-04-15T02:10:30;11.60;;;4.33;;
19965;SDS011;10144;50.874;4.762;2023-04-15T02:12:56;9.57;;;4.43;;
19965;SDS011;10144;50.874;4.762;2023-04-15T02:15:22;12.77;;;4.47;;
19965;SDS011;10144;50.874;4.762;2023-04-15T02:17:54;11.40;;;4.73;;
19965;SDS011;10144;50.874;4.762;2023-04-15T02:20:19;11.00;;;5.03;;
19965;SDS011;10144;50.874;4.762;2023-04-15T02:22:46;17.40;;;6.10;;
19965;SDS011;10144;50.874;4.762;2023-04-15T02:25:14;18.00;;;5.30;;
19965;SDS011;10144;50.874;4.762;2023-04-15T02:30:11;15.37;;;5.13;;
19965;SDS011;10144;50.874;4.762;2023-04-15T02:32:39;13.07;;;4.30;;
19965;SDS011;10144;50.874;4.762;2023-04-15T02:35:11;13.83;;;4.80;;
19965;SDS011;10144;50.874;4.762;2023-04-15T02:37:43;11.53;;;4.47;;
19965;SDS011;10144;50.874;4.762;2023-04-15T02:40:16;14.53;;;4.70;;
19965;SDS011;10144;50.874;4.762;2023-04-15T02:42:45;14.27;;;4.70;;
19965;SDS011;10144;50.874;4.762;2023-04-15T02:45:10;11.80;;;4.57;;
19965;SDS011;10144;50.874;4.762;2023-04-15T02:47:40;13.33;;;5.00;;
19965;SDS011;10144;50.874;4.762;2023-04-15T02:50:12;15.10;;;4.70;;
19965;SDS011;10144;50.874;4.762;2023-04-15T02:52:41;10.67;;;4.90;;
19965;SDS011;10144;50.874;4.762;2023-04-15T02:55:11;10.97;;;4.37;;
19965;SDS011;10144;50.874;4.762;2023-04-15T02:57:40;10.37;;;4.67;;
19965;SDS011;10144;50.874;4.762;2023-04-15T03:00:12;10.63;;;5.07;;
19965;SDS011;10144;50.874;4.762;2023-04-15T03:05:13;11.50;;;4.93;;
19965;SDS011;10144;50.874;4.762;2023-04-15T03:07:41;11.37;;;4.73;;
19965;SDS011;10144;50.874;4.762;2023-04-15T03:10:08;11.37;;;4.83;;
19965;SDS011;10144;50.874;4.762;2023-04-15T03:12:35;13.27;;;5.07;;
19965;SDS011;10144;50.874;4.762;2023-04-15T03:15:02;15.70;;;5.10;;
19965;SDS011;10144;50.874;4.762;2023-04-15T03:17:28;9.83;;;5.00;;
19965;SDS011;10144;50.874;4.762;2023-04-15T03:19:55;11.60;;;4.70;;
19965;SDS011;10144;50.874;4.762;2023-04-15T03:22:24;11.57;;;4.93;;
19965;SDS011;10144;50.874;4.762;2023-04-15T03:24:50;11.07;;;5.07;;
19965;SDS011;10144;50.874;4.762;2023-04-15T03:27:22;19.60;;;5.00;;
19965;SDS011;10144;50.874;4.762;2023-04-15T03:29:48;11.30;;;4.80;;
19965;SDS011;10144;50.874;4.762;2023-04-15T03:32:15;11.70;;;5.00;;
19965;SDS011;10144;50.874;4.762;2023-04-15T03:34:44;11.60;;;5.40;;
19965;SDS011;10144;50.874;4.762;2023-04-15T03:37:09;13.70;;;5.10;;
19965;SDS011;10144;50.874;4.762;2023-04-15T03:42:07;13.47;;;5.27;;
19965;SDS011;10144;50.874;4.762;2023-04-15T03:44:33;9.00;;;4.60;;
19965;SDS011;10144;50.874;4.762;2023-04-15T03:47:04;14.23;;;4.47;;
19965;SDS011;10144;50.874;4.762;2023-04-15T03:49:36;14.73;;;5.93;;
19965;SDS011;10144;50.874;4.762;2023-04-15T03:52:05;10.73;;;5.23;;
19965;SDS011;10144;50.874;4.762;2023-04-15T03:54:34;15.43;;;5.27;;
19965;SDS011;10144;50.874;4.762;2023-04-15T03:56:59;9.60;;;5.10;;
19965;SDS011;10144;50.874;4.762;2023-04-15T03:59:26;16.27;;;5.70;;
19965;SDS011;10144;50.874;4.762;2023-04-15T04:01:52;11.70;;;5.37;;
19965;SDS011;10144;50.874;4.762;2023-04-15T04:04:17;12.07;;;5.30;;
19965;SDS011;10144;50.874;4.762;2023-04-15T04:06:44;13.47;;;5.07;;
19965;SDS011;10144;50.874;4.762;2023-04-15T04:09:16;12.83;;;4.97;;
19965;SDS011;10144;50.874;4.762;2023-04-15T04:11:42;13.20;;;5.43;;
19965;SDS011;10144;50.874;4.762;2023-04-15T04:14:09;13.03;;;5.80;;
19965;SDS011;10144;50.874;4.762;2023-04-15T04:16:35;13.93;;;5.80;;
19965;SDS011;10144;50.874;4.762;2023-04-15T04:21:32;11.97;;;5.27;;
19965;SDS011;10144;50.874;4.762;2023-04-15T04:23:58;14.43;;;5.27;;
19965;SDS011;10144;50.874;4.762;2023-04-15T04:26:27;11.83;;;5.37;;
19965;SDS011;10144;50.874;4.762;2023-04-15T04:28:53;15.60;;;5.37;;
19965;SDS011;10144;50.874;4.762;2023-04-15T04:31:25;11.73;;;5.20;;
19965;SDS011;10144;50.874;4.762;2023-04-15T04:33:54;13.07;;;5.03;;
19965;SDS011;10144;50.874;4.762;2023-04-15T04:38:51;12.33;;;5.33;;
19965;SDS011;10144;50.874;4.762;2023-04-15T04:41:26;11.47;;;5.03;;
19965;SDS011;10144;50.874;4.762;2023-04-15T04:43:55;15.70;;;5.20;;
19965;SDS011;10144;50.874;4.762;2023-04-15T04:46:24;12.63;;;5.50;;
19965;SDS011;10144;50.874;4.762;2023-04-15T04:48:53;13.00;;;5.10;;
19965;SDS011;10144;50.874;4.762;2023-04-15T04:51:22;11.77;;;4.93;;
19965;SDS011;10144;50.874;4.762;2023-04-15T04:56:22;14.77;;;5.77;;
19965;SDS011;10144;50.874;4.762;2023-04-15T04:58:48;11.87;;;5.57;;
19965;SDS011;10144;50.874;4.762;2023-04-15T05:01:17;12.37;;;5.43;;
19965;SDS011;10144;50.874;4.762;2023-04-15T05:03:49;14.50;;;5.43;;
19965;SDS011;10144;50.874;4.762;2023-04-15T05:06:15;16.03;;;5.10;;
19965;SDS011;10144;50.874;4.762;2023-04-15T05:08:42;16.13;;;5.07;;
19965;SDS011;10144;50.874;4.762;2023-04-15T05:11:11;15.83;;;5.53;;
19965;SDS011;10144;50.874;4.762;2023-04-15T05:16:05;14.20;;;5.53;;
19965;SDS011;10144;50.874;4.762;2023-04-15T05:18:34;12.23;;;5.90;;
19965;SDS011;10144;50.874;4.762;2023-04-15T05:21:00;12.30;;;5.27;;
19965;SDS011;10144;50.874;4.762;2023-04-15T05:23:26;12.00;;;5.10;;
19965;SDS011;10144;50.874;4.762;2023-04-15T05:28:24;13.77;;;5.40;;
19965;SDS011;10144;50.874;4.762;2023-04-15T05:30:55;11.13;;;5.27;;
19965;SDS011;10144;50.874;4.762;2023-04-15T05:35:56;12.93;;;5.43;;
19965;SDS011;10144;50.874;4.762;2023-04-15T05:40:53;17.87;;;7.60;;
19965;SDS011;10144;50.874;4.762;2023-04-15T05:43:18;17.77;;;9.87;;
19965;SDS011;10144;50.874;4.762;2023-04-15T05:45:44;12.73;;;6.00;;
19965;SDS011;10144;50.874;4.762;2023-04-15T05:48:12;17.60;;;5.73;;
19965;SDS011;10144;50.874;4.762;2023-04-15T05:50:43;11.90;;;5.90;;
19965;SDS011;10144;50.874;4.762;2023-04-15T05:53:10;9.73;;;5.87;;
19965;SDS011;10144;50.874;4.762;2023-04-15T05:55:39;12.07;;;5.30;;
19965;SDS011;10144;50.874;4.762;2023-04-15T05:58:08;19.47;;;5.50;;
19965;SDS011;10144;50.874;4.762;2023-04-15T06:03:31;13.97;;;4.87;;
19965;SDS011;10144;50.874;4.762;2023-04-15T06:06:03;11.83;;;5.60;;
19965;SDS011;10144;50.874;4.762;2023-04-15T06:08:29;10.57;;;4.73;;
19965;SDS011;10144;50.874;4.762;2023-04-15T06:10:57;14.47;;;5.50;;
19965;SDS011;10144;50.874;4.762;2023-04-15T06:13:23;12.37;;;5.50;;
19965;SDS011;10144;50.874;4.762;2023-04-15T06:15:52;11.77;;;5.23;;
19965;SDS011;10144;50.874;4.762;2023-04-15T06:18:18;11.10;;;4.93;;
19965;SDS011;10144;50.874;4.762;2023-04-15T06:20:46;10.73;;;5.17;;
19965;SDS011;10144;50.874;4.762;2023-04-15T06:23:15;10.60;;;4.90;;
19965;SDS011;10144;50.874;4.762;2023-04-15T06:25:40;13.83;;;5.37;;
19965;SDS011;10144;50.874;4.762;2023-04-15T06:28:06;12.37;;;5.83;;
19965;SDS011;10144;50.874;4.762;2023-04-15T06:30:31;12.03;;;5.40;;
19965;SDS011;10144;50.874;4.762;2023-04-15T06:33:00;17.40;;;6.43;;
19965;SDS011;10144;50.874;4.762;2023-04-15T06:35:32;19.40;;;6.80;;
19965;SDS011;10144;50.874;4.762;2023-04-15T06:37:58;15.13;;;6.90;;
19965;SDS011;10144;50.874;4.762;2023-04-15T06:40:24;20.23;;;7.40;;
19965;SDS011;10144;50.874;4.762;2023-04-15T06:42:51;20.30;;;6.47;;
19965;SDS011;10144;50.874;4.762;2023-04-15T06:47:46;15.47;;;6.93;;
19965;SDS011;10144;50.874;4.762;2023-04-15T06:50:12;21.50;;;7.27;;
19965;SDS011;10144;50.874;4.762;2023-04-15T06:52:37;18.23;;;7.03;;
19965;SDS011;10144;50.874;4.762;2023-04-15T06:55:03;17.77;;;7.00;;
19965;SDS011;10144;50.874;4.762;2023-04-15T06:57:29;15.35;;;6.50;;
19965;SDS011;10144;50.874;4.762;2023-04-15T06:59:55;17.00;;;7.25;;
19965;SDS011;10144;50.874;4.762;2023-04-15T07:02:21;15.60;;;6.40;;
19965;SDS011;10144;50.874;4.762;2023-04-15T07:04:47;19.63;;;6.55;;
19965;SDS011;10144;50.874;4.762;2023-04-15T07:07:13;20.33;;;7.50;;
19965;SDS011;10144;50.874;4.762;2023-04-15T07:09:39;11.18;;;5.95;;
19965;SDS011;10144;50.874;4.762;2023-04-15T07:12:04;12.30;;;5.97;;
19965;SDS011;10144;50.874;4.762;2023-04-15T07:14:30;15.93;;;5.90;;
19965;SDS011;10144;50.874;4.762;2023-04-15T07:16:56;13.73;;;5.63;;
19965;SDS011;10144;50.874;4.762;2023-04-15T07:19:21;10.75;;;5.20;;
19965;SDS011;10144;50.874;4.762;2023-04-15T07:21:48;10.40;;;5.22;;
19965;SDS011;10144;50.874;4.762;2023-04-15T07:24:14;12.95;;;5.50;;
19965;SDS011;10144;50.874;4.762;2023-04-15T07:26:42;14.90;;;5.70;;
19965;SDS011;10144;50.874;4.762;2023-04-15T07:29:08;9.32;;;5.30;;
19965;SDS011;10144;50.874;4.762;2023-04-15T07:31:34;12.35;;;6.07;;
19965;SDS011;10144;50.874;4.762;2023-04-15T07:34:01;11.63;;;5.70;;
19965;SDS011;10144;50.874;4.762;2023-04-15T07:36:27;13.05;;;5.57;;
19965;SDS011;10144;50.874;4.762;2023-04-15T07:38:53;11.13;;;6.10;;
19965;SDS011;10144;50.874;4.762;2023-04-15T07:41:19;12.82;;;6.18;;
19965;SDS011;10144;50.874;4.762;2023-04-15T07:43:45;13.00;;;6.25;;
19965;SDS011;10144;50.874;4.762;2023-04-15T07:46:12;12.93;;;5.18;;
19965;SDS011;10144;50.874;4.762;2023-04-15T07:48:38;9.75;;;5.60;;
19965;SDS011;10144;50.874;4.762;2023-04-15T07:51:04;12.52;;;5.50;;
19965;SDS011;10144;50.874;4.762;2023-04-15T07:53:30;9.70;;;5.78;;
19965;SDS011;10144;50.874;4.762;2023-04-15T07:55:57;11.57;;;5.95;;
19965;SDS011;10144;50.874;4.762;2023-04-15T07:58:22;9.80;;;5.90;;
19965;SDS011;10144;50.874;4.762;2023-04-15T08:00:48;12.50;;;5.90;;
19965;SDS011;10144;50.874;4.762;2023-04-15T08:03:14;12.30;;;6.25;;
19965;SDS011;10144;50.874;4.762;2023-04-15T08:05:40;10.23;;;5.40;;
19965;SDS011;10144;50.874;4.762;2023-04-15T08:08:05;10.05;;;5.93;;
19965;SDS011;10144;50.874;4.762;2023-04-15T08:10:31;12.25;;;6.20;;
19965;SDS011;10144;50.874;4.762;2023-04-15T08:12:57;10.73;;;5.75;;
19965;SDS011;10144;50.874;4.762;2023-04-15T08:15:22;11.45;;;6.13;;
19965;SDS011;10144;50.874;4.762;2023-04-15T08:17:48;14.18;;;6.10;;
19965;SDS011;10144;50.874;4.762;2023-04-15T08:20:14;11.80;;;6.38;;
19965;SDS011;10144;50.874;4.762;2023-04-15T08:22:40;11.25;;;5.97;;
19965;SDS011;10144;50.874;4.762;2023-04-15T08:25:06;12.15;;;6.30;;
19965;SDS011;10144;50.874;4.762;2023-04-15T08:27:33;12.48;;;6.20;;
19965;SDS011;10144;50.874;4.762;2023-04-15T08:29:58;13.75;;;6.53;;
19965;SDS011;10144;50.874;4.762;2023-04-15T08:32:26;11.68;;;5.88;;
19965;SDS011;10144;50.874;4.762;2023-04-15T08:34:52;13.27;;;6.25;;
19965;SDS011;10144;50.874;4.762;2023-04-15T08:37:18;13.45;;;6.70;;
19965;SDS011;10144;50.874;4.762;2023-04-15T08:39:44;13.15;;;6.60;;
19965;SDS011;10144;50.874;4.762;2023-04-15T08:42:10;11.68;;;6.70;;
19965;SDS011;10144;50.874;4.762;2023-04-15T08:44:40;14.68;;;7.03;;
19965;SDS011;10144;50.874;4.762;2023-04-15T08:47:07;11.65;;;7.30;;
19965;SDS011;10144;50.874;4.762;2023-04-15T08:49:34;10.93;;;6.47;;
19965;SDS011;10144;50.874;4.762;2023-04-15T08:52:05;16.70;;;7.65;;
19965;SDS011;10144;50.874;4.762;2023-04-15T08:54:32;14.13;;;7.50;;
19965;SDS011;10144;50.874;4.762;2023-04-15T08:56:59;15.48;;;7.90;;
19965;SDS011;10144;50.874;4.762;2023-04-15T08:59:26;13.88;;;8.52;;
19965;SDS011;10144;50.874;4.762;2023-04-15T09:01:54;14.80;;;8.13;;
19965;SDS011;10144;50.874;4.762;2023-04-15T09:04:21;14.07;;;7.88;;
19965;SDS011;10144;50.874;4.762;2023-04-15T09:06:46;14.63;;;7.65;;
19965;SDS011;10144;50.874;4.762;2023-04-15T09:09:12;13.85;;;6.75;;
19965;SDS011;10144;50.874;4.762;2023-04-15T09:11:38;10.13;;;6.30;;
19965;SDS011;10144;50.874;4.762;2023-04-15T09:14:04;10.90;;;6.38;;
19965;SDS011;10144;50.874;4.762;2023-04-15T09:16:29;11.68;;;6.25;;
19965;SDS011;10144;50.874;4.762;2023-04-15T09:18:55;16.27;;;7.00;;
19965;SDS011;10144;50.874;4.762;2023-04-15T09:21:21;9.38;;;6.40;;
19965;SDS011;10144;50.874;4.762;2023-04-15T09:23:58;13.48;;;6.80;;
19965;SDS011;10144;50.874;4.762;2023-04-15T09:26:36;12.60;;;7.03;;
19965;SDS011;10144;50.874;4.762;2023-04-15T09:29:05;12.02;;;6.70;;
19965;SDS011;10144;50.874;4.762;2023-04-15T09:31:32;15.00;;;7.82;;
19965;SDS011;10144;50.874;4.762;2023-04-15T09:33:58;12.02;;;6.97;;
19965;SDS011;10144;50.874;4.762;2023-04-15T09:36:23;9.55;;;5.82;;
19965;SDS011;10144;50.874;4.762;2023-04-15T09:38:58;9.70;;;5.45;;
19965;SDS011;10144;50.874;4.762;2023-04-15T09:41:25;8.18;;;5.20;;
19965;SDS011;10144;50.874;4.762;2023-04-15T09:43:51;12.43;;;5.72;;
19965;SDS011;10144;50.874;4.762;2023-04-15T09:46:17;10.15;;;5.60;;
19965;SDS011;10144;50.874;4.762;2023-04-15T09:48:42;9.13;;;5.53;;
19965;SDS011;10144;50.874;4.762;2023-04-15T09:51:08;10.73;;;6.03;;
19965;SDS011;10144;50.874;4.762;2023-04-15T09:53:34;16.17;;;6.72;;
19965;SDS011;10144;50.874;4.762;2023-04-15T09:56:01;12.23;;;6.55;;
19965;SDS011;10144;50.874;4.762;2023-04-15T09:58:27;9.48;;;5.85;;
19965;SDS011;10144;50.874;4.762;2023-04-15T10:00:55;10.82;;;5.63;;
19965;SDS011;10144;50.874;4.762;2023-04-15T10:03:22;9.82;;;5.60;;
19965;SDS011;10144;50.874;4.762;2023-04-15T10:05:53;8.05;;;5.13;;
19965;SDS011;10144;50.874;4.762;2023-04-15T10:08:24;8.15;;;4.88;;
19965;SDS011;10144;50.874;4.762;2023-04-15T10:10:52;10.32;;;4.78;;
19965;SDS011;10144;50.874;4.762;2023-04-15T10:13:19;8.05;;;4.15;;
19965;SDS011;10144;50.874;4.762;2023-04-15T10:15:50;7.55;;;4.25;;
19965;SDS011;10144;50.874;4.762;2023-04-15T10:18:19;8.02;;;4.13;;
19965;SDS011;10144;50.874;4.762;2023-04-15T10:20:47;8.38;;;4.50;;
19965;SDS011;10144;50.874;4.762;2023-04-15T10:23:14;7.53;;;3.97;;
19965;SDS011;10144;50.874;4.762;2023-04-15T10:25:41;6.82;;;4.80;;
19965;SDS011;10144;50.874;4.762;2023-04-15T10:28:07;8.02;;;4.88;;
19965;SDS011;10144;50.874;4.762;2023-04-15T10:30:33;7.82;;;3.97;;
19965;SDS011;10144;50.874;4.762;2023-04-15T10:33:03;5.30;;;3.75;;
19965;SDS011;10144;50.874;4.762;2023-04-15T10:35:30;6.80;;;3.70;;
19965;SDS011;10144;50.874;4.762;2023-04-15T10:37:58;6.50;;;3.78;;
19965;SDS011;10144;50.874;4.762;2023-04-15T10:42:58;6.28;;;4.15;;
19965;SDS011;10144;50.874;4.762;2023-04-15T10:45:26;5.57;;;3.80;;
19965;SDS011;10144;50.874;4.762;2023-04-15T10:47:56;7.43;;;4.30;;
19965;SDS011;10144;50.874;4.762;2023-04-15T10:50:25;7.30;;;4.32;;
19965;SDS011;10144;50.874;4.762;2023-04-15T10:52:52;7.13;;;3.60;;
19965;SDS011;10144;50.874;4.762;2023-04-15T10:55:22;5.47;;;3.53;;
19965;SDS011;10144;50.874;4.762;2023-04-15T10:57:53;6.72;;;3.17;;
19965;SDS011;10144;50.874;4.762;2023-04-15T11:00:27;6.82;;;4.13;;
19965;SDS011;10144;50.874;4.762;2023-04-15T11:08:15;7.75;;;3.70;;
19965;SDS011;10144;50.874;4.762;2023-04-15T11:15:45;6.70;;;3.33;;
19965;SDS011;10144;50.874;4.762;2023-04-15T11:18:15;6.40;;;3.30;;
19965;SDS011;10144;50.874;4.762;2023-04-15T11:20:50;4.90;;;2.97;;
19965;SDS011;10144;50.874;4.762;2023-04-15T11:23:19;5.72;;;3.13;;
19965;SDS011;10144;50.874;4.762;2023-04-15T11:26:08;6.40;;;3.38;;
19965;SDS011;10144;50.874;4.762;2023-04-15T11:28:39;5.07;;;2.85;;
19965;SDS011;10144;50.874;4.762;2023-04-15T11:31:07;4.38;;;2.90;;
19965;SDS011;10144;50.874;4.762;2023-04-15T11:36:30;7.72;;;3.60;;
19965;SDS011;10144;50.874;4.762;2023-04-15T11:38:56;7.32;;;3.85;;
19965;SDS011;10144;50.874;4.762;2023-04-15T11:41:23;5.32;;;3.08;;
19965;SDS011;10144;50.874;4.762;2023-04-15T11:43:49;6.78;;;3.03;;
19965;SDS011;10144;50.874;4.762;2023-04-15T11:46:15;7.78;;;3.83;;
19965;SDS011;10144;50.874;4.762;2023-04-15T11:48:42;6.65;;;3.35;;
19965;SDS011;10144;50.874;4.762;2023-04-15T11:51:10;12.35;;;4.18;;
19965;SDS011;10144;50.874;4.762;2023-04-15T11:56:03;8.30;;;4.13;;
19965;SDS011;10144;50.874;4.762;2023-04-15T11:58:32;11.25;;;6.78;;
19965;SDS011;10144;50.874;4.762;2023-04-15T12:01:01;3.83;;;2.47;;
19965;SDS011;10144;50.874;4.762;2023-04-15T12:03:30;3.30;;;2.20;;
19965;SDS011;10144;50.874;4.762;2023-04-15T12:11:37;2.65;;;1.67;;
19965;SDS011;10144;50.874;4.762;2023-04-15T12:16:59;3.85;;;1.92;;
19965;SDS011;10144;50.874;4.762;2023-04-15T12:19:31;4.78;;;1.92;;
19965;SDS011;10144;50.874;4.762;2023-04-15T12:22:02;3.35;;;1.77;;
19965;SDS011;10144;50.874;4.762;2023-04-15T12:24:36;3.55;;;1.45;;
19965;SDS011;10144;50.874;4.762;2023-04-15T12:27:06;5.28;;;2.08;;
19965;SDS011;10144;50.874;4.762;2023-04-15T12:29:36;4.25;;;2.00;;
19965;SDS011;10144;50.874;4.762;2023-04-15T12:32:08;4.35;;;2.00;;
19965;SDS011;10144;50.874;4.762;2023-04-15T12:34:36;4.85;;;2.22;;
19965;SDS011;10144;50.874;4.762;2023-04-15T12:37:14;4.32;;;1.70;;
19965;SDS011;10144;50.874;4.762;2023-04-15T12:39:40;2.90;;;1.58;;
19965;SDS011;10144;50.874;4.762;2023-04-15T12:42:08;4.40;;;1.80;;
19965;SDS011;10144;50.874;4.762;2023-04-15T12:44:34;3.92;;;1.70;;
19965;SDS011;10144;50.874;4.762;2023-04-15T12:47:01;3.45;;;1.60;;
19965;SDS011;10144;50.874;4.762;2023-04-15T12:49:27;4.03;;;1.80;;
19965;SDS011;10144;50.874;4.762;2023-04-15T12:51:54;4.40;;;1.80;;
19965;SDS011;10144;50.874;4.762;2023-04-15T12:54:23;2.33;;;1.40;;
19965;SDS011;10144;50.874;4.762;2023-04-15T12:56:52;2.42;;;1.63;;
19965;SDS011;10144;50.874;4.762;2023-04-15T12:59:21;5.25;;;1.60;;
19965;SDS011;10144;50.874;4.762;2023-04-15T13:01:48;5.40;;;1.65;;
19965;SDS011;10144;50.874;4.762;2023-04-15T13:04:17;4.07;;;1.98;;
19965;SDS011;10144;50.874;4.762;2023-04-15T13:06:43;3.17;;;2.05;;
19965;SDS011;10144;50.874;4.762;2023-04-15T13:09:09;6.25;;;2.45;;
19965;SDS011;10144;50.874;4.762;2023-04-15T13:11:35;4.10;;;2.03;;
19965;SDS011;10144;50.874;4.762;2023-04-15T13:14:04;8.65;;;2.58;;
19965;SDS011;10144;50.874;4.762;2023-04-15T13:16:32;4.55;;;2.28;;
19965;SDS011;10144;50.874;4.762;2023-04-15T13:19:01;3.78;;;2.00;;
19965;SDS011;10144;50.874;4.762;2023-04-15T13:21:30;3.55;;;1.58;;
19965;SDS011;10144;50.874;4.762;2023-04-15T13:23:59;6.35;;;2.20;;
19965;SDS011;10144;50.874;4.762;2023-04-15T13:26:24;4.70;;;1.80;;
19965;SDS011;10144;50.874;4.762;2023-04-15T13:28:51;4.57;;;2.00;;
19965;SDS011;10144;50.874;4.762;2023-04-15T13:33:46;5.18;;;2.33;;
19965;SDS011;10144;50.874;4.762;2023-04-15T13:36:12;4.47;;;2.17;;
19965;SDS011;10144;50.874;4.762;2023-04-15T13:38:39;4.15;;;1.63;;
19965;SDS011;10144;50.874;4.762;2023-04-15T13:41:14;4.85;;;2.25;;
19965;SDS011;10144;50.874;4.762;2023-04-15T13:43:52;4.75;;;1.95;;
19965;SDS011;10144;50.874;4.762;2023-04-15T13:48:48;4.95;;;2.15;;
19965;SDS011;10144;50.874;4.762;2023-04-15T13:51:14;6.25;;;2.00;;
19965;SDS011;10144;50.874;4.762;2023-04-15T13:53:39;6.45;;;2.30;;
19965;SDS011;10144;50.874;4.762;2023-04-15T13:56:05;5.25;;;2.00;;
19965;SDS011;10144;50.874;4.762;2023-04-15T13:58:34;8.10;;;2.50;;
19965;SDS011;10144;50.874;4.762;2023-04-15T14:01:00;5.20;;;2.38;;
19965;SDS011;10144;50.874;4.762;2023-04-15T14:03:26;5.72;;;2.25;;
19965;SDS011;10144;50.874;4.762;2023-04-15T14:06:00;6.57;;;2.30;;
19965;SDS011;10144;50.874;4.762;2023-04-15T14:08:28;6.22;;;2.30;;
19965;SDS011;10144;50.874;4.762;2023-04-15T14:10:57;3.97;;;2.25;;
19965;SDS011;10144;50.874;4.762;2023-04-15T14:15:55;6.13;;;3.40;;
19965;SDS011;10144;50.874;4.762;2023-04-15T14:18:21;5.07;;;2.50;;
19965;SDS011;10144;50.874;4.762;2023-04-15T14:20:50;5.13;;;2.45;;
19965;SDS011;10144;50.874;4.762;2023-04-15T14:25:46;6.10;;;2.70;;
19965;SDS011;10144;50.874;4.762;2023-04-15T14:28:11;6.97;;;2.58;;
19965;SDS011;10144;50.874;4.762;2023-04-15T14:33:07;6.00;;;2.60;;
19965;SDS011;10144;50.874;4.762;2023-04-15T14:35:34;6.25;;;2.47;;
19965;SDS011;10144;50.874;4.762;2023-04-15T14:38:01;3.85;;;2.10;;
19965;SDS011;10144;50.874;4.762;2023-04-15T14:40:28;5.18;;;2.50;;
19965;SDS011;10144;50.874;4.762;2023-04-15T14:42:55;5.28;;;2.25;;
19965;SDS011;10144;50.874;4.762;2023-04-15T14:45:21;3.95;;;2.20;;
19965;SDS011;10144;50.874;4.762;2023-04-15T14:47:46;4.85;;;2.30;;
19965;SDS011;10144;50.874;4.762;2023-04-15T14:50:12;5.72;;;2.40;;
19965;SDS011;10144;50.874;4.762;2023-04-15T14:52:41;4.07;;;2.53;;
19965;SDS011;10144;50.874;4.762;2023-04-15T14:55:12;5.38;;;2.47;;
19965;SDS011;10144;50.874;4.762;2023-04-15T14:57:39;4.95;;;2.58;;
19965;SDS011;10144;50.874;4.762;2023-04-15T15:00:07;3.78;;;2.20;;
19965;SDS011;10144;50.874;4.762;2023-04-15T15:02:33;5.70;;;2.78;;
19965;SDS011;10144;50.874;4.762;2023-04-15T15:05:02;4.40;;;1.77;;
19965;SDS011;10144;50.874;4.762;2023-04-15T15:07:31;2.67;;;1.50;;
19965;SDS011;10144;50.874;4.762;2023-04-15T15:09:58;3.85;;;1.60;;
19965;SDS011;10144;50.874;4.762;2023-04-15T15:12:24;3.30;;;1.75;;
19965;SDS011;10144;50.874;4.762;2023-04-15T15:14:50;4.25;;;1.70;;
19965;SDS011;10144;50.874;4.762;2023-04-15T15:17:21;8.40;;;1.73;;
19965;SDS011;10144;50.874;4.762;2023-04-15T15:19:49;3.15;;;1.80;;
19965;SDS011;10144;50.874;4.762;2023-04-15T15:22:15;3.25;;;1.90;;
19965;SDS011;10144;50.874;4.762;2023-04-15T15:24:41;2.15;;;1.52;;
19965;SDS011;10144;50.874;4.762;2023-04-15T15:27:07;6.30;;;1.55;;
19965;SDS011;10144;50.874;4.762;2023-04-15T15:29:36;6.20;;;2.00;;
19965;SDS011;10144;50.874;4.762;2023-04-15T15:34:38;4.80;;;2.00;;
19965;SDS011;10144;50.874;4.762;2023-04-15T15:37:05;4.45;;;1.70;;
19965;SDS011;10144;50.874;4.762;2023-04-15T15:39:30;3.28;;;1.50;;
19965;SDS011;10144;50.874;4.762;2023-04-15T15:41:56;4.15;;;1.60;;
19965;SDS011;10144;50.874;4.762;2023-04-15T15:44:22;8.13;;;2.17;;
19965;SDS011;10144;50.874;4.762;2023-04-15T15:46:48;3.70;;;1.60;;
19965;SDS011;10144;50.874;4.762;2023-04-15T15:49:15;3.08;;;1.80;;
19965;SDS011;10144;50.874;4.762;2023-04-15T15:51:43;5.43;;;1.80;;
19965;SDS011;10144;50.874;4.762;2023-04-15T15:54:09;3.40;;;2.05;;
19965;SDS011;10144;50.874;4.762;2023-04-15T15:56:36;3.90;;;1.80;;
19965;SDS011;10144;50.874;4.762;2023-04-15T15:59:03;4.50;;;2.00;;
19965;SDS011;10144;50.874;4.762;2023-04-15T16:01:28;5.53;;;1.60;;
19965;SDS011;10144;50.874;4.762;2023-04-15T16:03:54;5.38;;;1.90;;
19965;SDS011;10144;50.874;4.762;2023-04-15T16:06:20;5.13;;;1.90;;
19965;SDS011;10144;50.874;4.762;2023-04-15T16:08:45;2.80;;;1.65;;
19965;SDS011;10144;50.874;4.762;2023-04-15T16:11:11;6.97;;;2.40;;
19965;SDS011;10144;50.874;4.762;2023-04-15T16:13:36;5.38;;;1.85;;